Route Details

Aircraft Information
Group: North America Fleet
Types: B738, B752, B762, B763
Route Data
Distance: 438nm
Duration: 0h 00m
Origin METAR: KLAL 080115Z AUTO 09009KT 10SM CLR 20/12 A3027 RMK AO2 T02010120
Dest. METAR: KCLT 080052Z 20005KT 10SM FEW200 SCT250 12/01 A3029 RMK SLP257 T01220006 $
Freight Data
(for Feb 8, 2023)
Load Factor:
56%
Manifested Cargo: 46,023lbs
Financial History
Total Freight: 18,053lbs
Average Load: 0lbs/flt
Fuel Used: 18,760lbs
Avg. Fuel Used: 0lbs/flt
Fuel Expense: $10,506
Avg. Fuel Expense: $0
Avg. Fuel Cost: $0/lbs
Total Gross Income: $44,410
Pilot Pay: $79
Total Expenses: $13,792
Total Revenue: $19,741
Average Revenue: $0

Capitol Logistics 330




KLAL
Lakeland Linder Regional Airport
Lakeland, Florida
KCLT
Charlotte/Douglas International Airport
Charlotte, North Carolina

Activity Log

Date Flight Route Aircraft Duration
07/31/2022 CPX330 NITTS WILON CAMJO AMG PONZE BANKR2 B763 1h 50m